sensor_id;sensor_type;location;lat;lon;timestamp;P1;durP1;ratioP1;P2;durP2;ratioP2
23370;SDS011;11858;51.056;3.712;2023-07-20T00:01:58;5.20;;;4.90;;
23370;SDS011;11858;51.056;3.712;2023-07-20T00:04:23;4.25;;;4.05;;
23370;SDS011;11858;51.056;3.712;2023-07-20T00:06:49;4.30;;;4.10;;
23370;SDS011;11858;51.056;3.712;2023-07-20T00:09:15;4.10;;;3.90;;
23370;SDS011;11858;51.056;3.712;2023-07-20T00:11:47;4.20;;;4.00;;
23370;SDS011;11858;51.056;3.712;2023-07-20T00:14:15;3.60;;;3.40;;
23370;SDS011;11858;51.056;3.712;2023-07-20T00:16:42;3.90;;;3.70;;
23370;SDS011;11858;51.056;3.712;2023-07-20T00:19:08;4.20;;;4.00;;
23370;SDS011;11858;51.056;3.712;2023-07-20T00:21:35;3.80;;;3.60;;
23370;SDS011;11858;51.056;3.712;2023-07-20T00:24:01;3.53;;;3.33;;
23370;SDS011;11858;51.056;3.712;2023-07-20T00:26:26;3.85;;;3.65;;
23370;SDS011;11858;51.056;3.712;2023-07-20T00:28:52;4.45;;;4.15;;
23370;SDS011;11858;51.056;3.712;2023-07-20T00:31:18;3.50;;;3.30;;
23370;SDS011;11858;51.056;3.712;2023-07-20T00:33:43;3.25;;;3.15;;
23370;SDS011;11858;51.056;3.712;2023-07-20T00:36:09;3.20;;;3.10;;
23370;SDS011;11858;51.056;3.712;2023-07-20T00:38:35;3.28;;;3.17;;
23370;SDS011;11858;51.056;3.712;2023-07-20T00:41:00;3.10;;;3.00;;
23370;SDS011;11858;51.056;3.712;2023-07-20T00:43:26;2.90;;;2.80;;
23370;SDS011;11858;51.056;3.712;2023-07-20T00:45:52;3.70;;;3.53;;
23370;SDS011;11858;51.056;3.712;2023-07-20T00:48:18;2.92;;;2.83;;
23370;SDS011;11858;51.056;3.712;2023-07-20T00:50:43;2.50;;;2.40;;
23370;SDS011;11858;51.056;3.712;2023-07-20T00:53:11;2.92;;;2.83;;
23370;SDS011;11858;51.056;3.712;2023-07-20T00:55:36;2.40;;;2.30;;
23370;SDS011;11858;51.056;3.712;2023-07-20T00:58:02;2.40;;;2.30;;
23370;SDS011;11858;51.056;3.712;2023-07-20T01:00:29;2.42;;;2.33;;
23370;SDS011;11858;51.056;3.712;2023-07-20T01:02:54;2.50;;;2.40;;
23370;SDS011;11858;51.056;3.712;2023-07-20T01:05:20;2.30;;;2.20;;
23370;SDS011;11858;51.056;3.712;2023-07-20T01:08:07;2.50;;;2.40;;
23370;SDS011;11858;51.056;3.712;2023-07-20T01:10:43;2.67;;;2.58;;
23370;SDS011;11858;51.056;3.712;2023-07-20T01:13:15;2.33;;;2.22;;
23370;SDS011;11858;51.056;3.712;2023-07-20T01:15:48;2.40;;;2.30;;
23370;SDS011;11858;51.056;3.712;2023-07-20T01:18:18;2.20;;;2.10;;
23370;SDS011;11858;51.056;3.712;2023-07-20T01:20:44;2.40;;;2.30;;
23370;SDS011;11858;51.056;3.712;2023-07-20T01:31:51;2.00;;;1.90;;
23370;SDS011;11858;51.056;3.712;2023-07-20T01:34:18;2.08;;;1.98;;
23370;SDS011;11858;51.056;3.712;2023-07-20T01:36:46;2.20;;;2.10;;
23370;SDS011;11858;51.056;3.712;2023-07-20T01:39:15;2.20;;;2.10;;
23370;SDS011;11858;51.056;3.712;2023-07-20T01:41:41;2.00;;;1.90;;
23370;SDS011;11858;51.056;3.712;2023-07-20T01:44:08;2.10;;;2.00;;
23370;SDS011;11858;51.056;3.712;2023-07-20T01:46:33;2.10;;;2.00;;
23370;SDS011;11858;51.056;3.712;2023-07-20T01:48:59;2.03;;;1.92;;
23370;SDS011;11858;51.056;3.712;2023-07-20T01:51:24;2.15;;;2.05;;
23370;SDS011;11858;51.056;3.712;2023-07-20T01:53:50;2.10;;;2.00;;
23370;SDS011;11858;51.056;3.712;2023-07-20T01:56:16;2.08;;;1.98;;
23370;SDS011;11858;51.056;3.712;2023-07-20T01:58:41;1.88;;;1.80;;
23370;SDS011;11858;51.056;3.712;2023-07-20T02:01:07;2.15;;;2.05;;
23370;SDS011;11858;51.056;3.712;2023-07-20T02:03:33;1.60;;;1.60;;
23370;SDS011;11858;51.056;3.712;2023-07-20T02:05:58;1.80;;;1.80;;
23370;SDS011;11858;51.056;3.712;2023-07-20T02:08:24;1.70;;;1.70;;
23370;SDS011;11858;51.056;3.712;2023-07-20T02:10:50;2.05;;;1.95;;
23370;SDS011;11858;51.056;3.712;2023-07-20T02:13:16;1.70;;;1.70;;
23370;SDS011;11858;51.056;3.712;2023-07-20T02:15:41;1.70;;;1.70;;
23370;SDS011;11858;51.056;3.712;2023-07-20T02:18:07;1.85;;;1.80;;
23370;SDS011;11858;51.056;3.712;2023-07-20T02:20:34;1.60;;;1.60;;
23370;SDS011;11858;51.056;3.712;2023-07-20T02:23:00;1.77;;;1.75;;
23370;SDS011;11858;51.056;3.712;2023-07-20T02:25:26;6.55;;;4.70;;
23370;SDS011;11858;51.056;3.712;2023-07-20T02:27:51;1.30;;;1.30;;
23370;SDS011;11858;51.056;3.712;2023-07-20T02:30:17;1.40;;;1.40;;
23370;SDS011;11858;51.056;3.712;2023-07-20T02:32:43;1.40;;;1.40;;
23370;SDS011;11858;51.056;3.712;2023-07-20T02:35:10;1.40;;;1.40;;
23370;SDS011;11858;51.056;3.712;2023-07-20T02:37:37;1.42;;;1.42;;
23370;SDS011;11858;51.056;3.712;2023-07-20T02:40:02;1.55;;;1.55;;
23370;SDS011;11858;51.056;3.712;2023-07-20T02:42:30;1.60;;;1.60;;
23370;SDS011;11858;51.056;3.712;2023-07-20T02:44:56;2.50;;;2.30;;
23370;SDS011;11858;51.056;3.712;2023-07-20T02:47:21;1.67;;;1.67;;
23370;SDS011;11858;51.056;3.712;2023-07-20T02:49:47;1.70;;;1.70;;
23370;SDS011;11858;51.056;3.712;2023-07-20T02:52:13;1.70;;;1.70;;
23370;SDS011;11858;51.056;3.712;2023-07-20T02:54:38;1.90;;;1.80;;
23370;SDS011;11858;51.056;3.712;2023-07-20T02:57:04;2.60;;;2.50;;
23370;SDS011;11858;51.056;3.712;2023-07-20T02:59:30;2.00;;;1.90;;
23370;SDS011;11858;51.056;3.712;2023-07-20T03:01:55;2.20;;;2.10;;
23370;SDS011;11858;51.056;3.712;2023-07-20T03:04:22;2.00;;;1.90;;
23370;SDS011;11858;51.056;3.712;2023-07-20T03:06:50;2.00;;;1.90;;
23370;SDS011;11858;51.056;3.712;2023-07-20T03:09:16;2.60;;;2.50;;
23370;SDS011;11858;51.056;3.712;2023-07-20T03:11:42;2.22;;;2.13;;
23370;SDS011;11858;51.056;3.712;2023-07-20T03:14:07;2.33;;;2.13;;
23370;SDS011;11858;51.056;3.712;2023-07-20T03:16:33;2.00;;;1.90;;
23370;SDS011;11858;51.056;3.712;2023-07-20T03:18:59;2.20;;;2.10;;
23370;SDS011;11858;51.056;3.712;2023-07-20T03:21:28;2.00;;;1.90;;
23370;SDS011;11858;51.056;3.712;2023-07-20T03:23:54;2.00;;;1.90;;
23370;SDS011;11858;51.056;3.712;2023-07-20T03:26:20;2.10;;;2.00;;
23370;SDS011;11858;51.056;3.712;2023-07-20T03:28:46;2.10;;;2.00;;
23370;SDS011;11858;51.056;3.712;2023-07-20T03:31:12;2.15;;;2.05;;
23370;SDS011;11858;51.056;3.712;2023-07-20T03:33:37;2.10;;;2.00;;
23370;SDS011;11858;51.056;3.712;2023-07-20T03:36:03;2.10;;;2.00;;
23370;SDS011;11858;51.056;3.712;2023-07-20T03:38:30;2.10;;;2.00;;
23370;SDS011;11858;51.056;3.712;2023-07-20T03:40:56;2.20;;;2.10;;
23370;SDS011;11858;51.056;3.712;2023-07-20T03:43:23;2.20;;;2.10;;
23370;SDS011;11858;51.056;3.712;2023-07-20T03:45:50;2.42;;;2.33;;
23370;SDS011;11858;51.056;3.712;2023-07-20T03:48:17;2.10;;;2.00;;
23370;SDS011;11858;51.056;3.712;2023-07-20T03:50:48;2.10;;;2.00;;
23370;SDS011;11858;51.056;3.712;2023-07-20T03:53:15;2.20;;;2.10;;
23370;SDS011;11858;51.056;3.712;2023-07-20T03:55:44;2.20;;;2.10;;
23370;SDS011;11858;51.056;3.712;2023-07-20T03:58:13;1.90;;;1.80;;
23370;SDS011;11858;51.056;3.712;2023-07-20T04:00:39;2.00;;;1.90;;
23370;SDS011;11858;51.056;3.712;2023-07-20T04:03:08;1.70;;;1.70;;
23370;SDS011;11858;51.056;3.712;2023-07-20T04:05:33;2.10;;;2.00;;
23370;SDS011;11858;51.056;3.712;2023-07-20T04:07:59;2.00;;;1.90;;
23370;SDS011;11858;51.056;3.712;2023-07-20T04:10:25;2.10;;;2.00;;
23370;SDS011;11858;51.056;3.712;2023-07-20T04:12:50;2.20;;;2.10;;
23370;SDS011;11858;51.056;3.712;2023-07-20T04:15:16;2.33;;;2.22;;
23370;SDS011;11858;51.056;3.712;2023-07-20T04:17:42;2.25;;;2.15;;
23370;SDS011;11858;51.056;3.712;2023-07-20T04:20:07;2.20;;;2.10;;
23370;SDS011;11858;51.056;3.712;2023-07-20T04:22:33;2.10;;;2.00;;
23370;SDS011;11858;51.056;3.712;2023-07-20T04:24:59;2.20;;;2.10;;
23370;SDS011;11858;51.056;3.712;2023-07-20T04:27:25;2.08;;;1.98;;
23370;SDS011;11858;51.056;3.712;2023-07-20T04:29:51;2.00;;;1.90;;
23370;SDS011;11858;51.056;3.712;2023-07-20T04:32:17;2.35;;;2.25;;
23370;SDS011;11858;51.056;3.712;2023-07-20T04:34:42;1.95;;;1.85;;
23370;SDS011;11858;51.056;3.712;2023-07-20T04:37:08;2.00;;;1.90;;
23370;SDS011;11858;51.056;3.712;2023-07-20T04:39:34;2.10;;;2.00;;
23370;SDS011;11858;51.056;3.712;2023-07-20T04:41:59;2.22;;;2.13;;
23370;SDS011;11858;51.056;3.712;2023-07-20T04:44:25;1.90;;;1.80;;
23370;SDS011;11858;51.056;3.712;2023-07-20T04:46:51;2.00;;;1.90;;
23370;SDS011;11858;51.056;3.712;2023-07-20T04:49:16;2.20;;;2.10;;
23370;SDS011;11858;51.056;3.712;2023-07-20T04:51:42;2.00;;;1.90;;
23370;SDS011;11858;51.056;3.712;2023-07-20T04:54:08;2.00;;;1.90;;
23370;SDS011;11858;51.056;3.712;2023-07-20T04:56:33;2.00;;;1.90;;
23370;SDS011;11858;51.056;3.712;2023-07-20T04:58:59;1.98;;;1.88;;
23370;SDS011;11858;51.056;3.712;2023-07-20T05:01:25;2.15;;;2.05;;
23370;SDS011;11858;51.056;3.712;2023-07-20T05:03:51;2.08;;;1.98;;
23370;SDS011;11858;51.056;3.712;2023-07-20T05:06:18;2.53;;;2.42;;
23370;SDS011;11858;51.056;3.712;2023-07-20T05:08:44;2.47;;;2.38;;
23370;SDS011;11858;51.056;3.712;2023-07-20T05:11:10;2.60;;;2.50;;
23370;SDS011;11858;51.056;3.712;2023-07-20T05:13:36;2.30;;;2.20;;
23370;SDS011;11858;51.056;3.712;2023-07-20T05:16:03;2.30;;;2.20;;
23370;SDS011;11858;51.056;3.712;2023-07-20T05:18:28;2.35;;;2.25;;
23370;SDS011;11858;51.056;3.712;2023-07-20T05:20:54;2.60;;;2.50;;
23370;SDS011;11858;51.056;3.712;2023-07-20T05:23:20;2.58;;;2.47;;
23370;SDS011;11858;51.056;3.712;2023-07-20T05:25:46;2.83;;;2.72;;
23370;SDS011;11858;51.056;3.712;2023-07-20T05:28:18;2.90;;;2.80;;
23370;SDS011;11858;51.056;3.712;2023-07-20T05:30:44;3.53;;;3.33;;
23370;SDS011;11858;51.056;3.712;2023-07-20T05:33:09;3.00;;;2.90;;
23370;SDS011;11858;51.056;3.712;2023-07-20T05:35:36;3.00;;;2.90;;
23370;SDS011;11858;51.056;3.712;2023-07-20T05:38:01;3.10;;;3.00;;
23370;SDS011;11858;51.056;3.712;2023-07-20T05:40:29;3.70;;;3.50;;
23370;SDS011;11858;51.056;3.712;2023-07-20T05:42:54;3.90;;;3.70;;
23370;SDS011;11858;51.056;3.712;2023-07-20T05:45:22;4.15;;;3.95;;
23370;SDS011;11858;51.056;3.712;2023-07-20T05:47:47;3.80;;;3.60;;
23370;SDS011;11858;51.056;3.712;2023-07-20T05:50:13;4.40;;;4.20;;
23370;SDS011;11858;51.056;3.712;2023-07-20T05:52:39;4.50;;;4.30;;
23370;SDS011;11858;51.056;3.712;2023-07-20T05:55:05;5.03;;;4.82;;
23370;SDS011;11858;51.056;3.712;2023-07-20T05:57:32;4.70;;;4.50;;
23370;SDS011;11858;51.056;3.712;2023-07-20T05:59:58;5.03;;;4.82;;
23370;SDS011;11858;51.056;3.712;2023-07-20T06:02:23;5.13;;;4.93;;
23370;SDS011;11858;51.056;3.712;2023-07-20T06:04:49;5.20;;;5.00;;
23370;SDS011;11858;51.056;3.712;2023-07-20T06:07:14;5.10;;;4.90;;
23370;SDS011;11858;51.056;3.712;2023-07-20T06:09:40;6.72;;;6.43;;
23370;SDS011;11858;51.056;3.712;2023-07-20T06:12:06;6.07;;;5.78;;
23370;SDS011;11858;51.056;3.712;2023-07-20T06:14:32;6.60;;;6.30;;
23370;SDS011;11858;51.056;3.712;2023-07-20T06:16:58;7.00;;;6.70;;
23370;SDS011;11858;51.056;3.712;2023-07-20T06:19:24;7.50;;;7.10;;
23370;SDS011;11858;51.056;3.712;2023-07-20T06:21:50;7.93;;;7.53;;
23370;SDS011;11858;51.056;3.712;2023-07-20T06:24:19;8.00;;;7.60;;
23370;SDS011;11858;51.056;3.712;2023-07-20T06:26:44;8.00;;;7.60;;
23370;SDS011;11858;51.056;3.712;2023-07-20T06:29:10;8.18;;;7.78;;
23370;SDS011;11858;51.056;3.712;2023-07-20T06:31:36;8.15;;;7.75;;
23370;SDS011;11858;51.056;3.712;2023-07-20T06:34:02;8.38;;;7.97;;
23370;SDS011;11858;51.056;3.712;2023-07-20T06:36:28;8.90;;;8.45;;
23370;SDS011;11858;51.056;3.712;2023-07-20T06:38:55;9.40;;;8.90;;
23370;SDS011;11858;51.056;3.712;2023-07-20T06:41:20;10.18;;;9.68;;
23370;SDS011;11858;51.056;3.712;2023-07-20T06:43:47;10.80;;;10.20;;
23370;SDS011;11858;51.056;3.712;2023-07-20T06:46:13;11.20;;;10.60;;
23370;SDS011;11858;51.056;3.712;2023-07-20T06:48:39;11.13;;;10.52;;
23370;SDS011;11858;51.056;3.712;2023-07-20T06:51:06;11.50;;;10.90;;
23370;SDS011;11858;51.056;3.712;2023-07-20T06:53:32;11.50;;;10.90;;
23370;SDS011;11858;51.056;3.712;2023-07-20T06:55:57;11.57;;;10.98;;
23370;SDS011;11858;51.056;3.712;2023-07-20T06:58:23;12.90;;;12.20;;
23370;SDS011;11858;51.056;3.712;2023-07-20T07:00:49;12.38;;;11.68;;
23370;SDS011;11858;51.056;3.712;2023-07-20T07:03:15;12.90;;;12.20;;
23370;SDS011;11858;51.056;3.712;2023-07-20T07:05:41;13.52;;;12.73;;
23370;SDS011;11858;51.056;3.712;2023-07-20T07:08:08;12.90;;;12.20;;
23370;SDS011;11858;51.056;3.712;2023-07-20T07:10:34;13.02;;;12.32;;
23370;SDS011;11858;51.056;3.712;2023-07-20T07:13:01;13.30;;;12.60;;
23370;SDS011;11858;51.056;3.712;2023-07-20T07:15:27;13.30;;;12.60;;
23370;SDS011;11858;51.056;3.712;2023-07-20T07:17:53;14.00;;;13.20;;
23370;SDS011;11858;51.056;3.712;2023-07-20T07:20:18;13.75;;;12.95;;
23370;SDS011;11858;51.056;3.712;2023-07-20T07:22:44;13.88;;;13.07;;
23370;SDS011;11858;51.056;3.712;2023-07-20T07:25:10;13.00;;;12.30;;
23370;SDS011;11858;51.056;3.712;2023-07-20T07:27:36;13.35;;;12.65;;
23370;SDS011;11858;51.056;3.712;2023-07-20T07:30:02;13.30;;;12.60;;
23370;SDS011;11858;51.056;3.712;2023-07-20T07:32:28;13.48;;;12.77;;
23370;SDS011;11858;51.056;3.712;2023-07-20T07:34:54;13.90;;;13.10;;
23370;SDS011;11858;51.056;3.712;2023-07-20T07:37:20;13.80;;;13.00;;
23370;SDS011;11858;51.056;3.712;2023-07-20T07:39:46;13.35;;;12.65;;
23370;SDS011;11858;51.056;3.712;2023-07-20T07:42:12;14.40;;;13.60;;
23370;SDS011;11858;51.056;3.712;2023-07-20T07:44:38;14.50;;;13.70;;
23370;SDS011;11858;51.056;3.712;2023-07-20T07:47:03;14.75;;;13.95;;
23370;SDS011;11858;51.056;3.712;2023-07-20T07:49:30;15.10;;;14.20;;
23370;SDS011;11858;51.056;3.712;2023-07-20T07:51:56;14.95;;;14.05;;
23370;SDS011;11858;51.056;3.712;2023-07-20T07:54:22;14.07;;;13.27;;
23370;SDS011;11858;51.056;3.712;2023-07-20T07:56:48;14.20;;;13.40;;
23370;SDS011;11858;51.056;3.712;2023-07-20T07:59:13;14.10;;;13.30;;
23370;SDS011;11858;51.056;3.712;2023-07-20T08:01:39;14.85;;;14.05;;
23370;SDS011;11858;51.056;3.712;2023-07-20T08:04:05;14.52;;;13.73;;
23370;SDS011;11858;51.056;3.712;2023-07-20T08:06:31;15.35;;;14.45;;
23370;SDS011;11858;51.056;3.712;2023-07-20T08:08:57;15.40;;;14.50;;
23370;SDS011;11858;51.056;3.712;2023-07-20T08:11:23;15.57;;;14.68;;
23370;SDS011;11858;51.056;3.712;2023-07-20T08:13:49;15.80;;;14.90;;
23370;SDS011;11858;51.056;3.712;2023-07-20T08:16:14;16.20;;;15.20;;
23370;SDS011;11858;51.056;3.712;2023-07-20T08:18:40;16.05;;;15.13;;
23370;SDS011;11858;51.056;3.712;2023-07-20T08:21:06;15.77;;;14.88;;
23370;SDS011;11858;51.056;3.712;2023-07-20T08:23:32;16.17;;;15.18;;
23370;SDS011;11858;51.056;3.712;2023-07-20T08:25:58;16.30;;;15.30;;
23370;SDS011;11858;51.056;3.712;2023-07-20T08:28:23;16.40;;;15.40;;
23370;SDS011;11858;51.056;3.712;2023-07-20T08:30:51;16.50;;;15.50;;
23370;SDS011;11858;51.056;3.712;2023-07-20T08:33:17;16.67;;;15.68;;
23370;SDS011;11858;51.056;3.712;2023-07-20T08:35:44;17.35;;;16.25;;
23370;SDS011;11858;51.056;3.712;2023-07-20T08:38:10;17.83;;;16.73;;
23370;SDS011;11858;51.056;3.712;2023-07-20T08:40:40;17.63;;;16.52;;
23370;SDS011;11858;51.056;3.712;2023-07-20T08:43:07;17.35;;;16.25;;
23370;SDS011;11858;51.056;3.712;2023-07-20T08:45:33;17.08;;;16.05;;
23370;SDS011;11858;51.056;3.712;2023-07-20T08:48:01;17.45;;;16.35;;
23370;SDS011;11858;51.056;3.712;2023-07-20T08:50:31;17.15;;;16.05;;
23370;SDS011;11858;51.056;3.712;2023-07-20T08:52:58;17.15;;;16.05;;
23370;SDS011;11858;51.056;3.712;2023-07-20T08:55:25;18.30;;;16.90;;
23370;SDS011;11858;51.056;3.712;2023-07-20T08:57:55;17.77;;;16.67;;
23370;SDS011;11858;51.056;3.712;2023-07-20T09:02:49;17.70;;;16.60;;
23370;SDS011;11858;51.056;3.712;2023-07-20T09:05:16;17.70;;;16.60;;
23370;SDS011;11858;51.056;3.712;2023-07-20T09:07:43;17.98;;;16.77;;
23370;SDS011;11858;51.056;3.712;2023-07-20T09:10:08;17.50;;;16.40;;
23370;SDS011;11858;51.056;3.712;2023-07-20T09:12:35;17.67;;;16.58;;
23370;SDS011;11858;51.056;3.712;2023-07-20T09:15:03;17.30;;;16.20;;
23370;SDS011;11858;51.056;3.712;2023-07-20T09:17:29;18.13;;;17.00;;
23370;SDS011;11858;51.056;3.712;2023-07-20T09:19:55;17.92;;;16.83;;
23370;SDS011;11858;51.056;3.712;2023-07-20T09:22:21;17.77;;;16.67;;
23370;SDS011;11858;51.056;3.712;2023-07-20T09:24:47;17.23;;;16.20;;
23370;SDS011;11858;51.056;3.712;2023-07-20T09:27:13;17.55;;;16.45;;
23370;SDS011;11858;51.056;3.712;2023-07-20T09:29:48;17.63;;;16.52;;
23370;SDS011;11858;51.056;3.712;2023-07-20T09:32:17;18.30;;;17.10;;
23370;SDS011;11858;51.056;3.712;2023-07-20T09:34:45;17.17;;;16.08;;
23370;SDS011;11858;51.056;3.712;2023-07-20T09:37:11;17.45;;;16.35;;
23370;SDS011;11858;51.056;3.712;2023-07-20T09:39:43;16.73;;;15.73;;
23370;SDS011;11858;51.056;3.712;2023-07-20T09:42:11;16.67;;;15.68;;
23370;SDS011;11858;51.056;3.712;2023-07-20T09:44:38;17.20;;;16.10;;
23370;SDS011;11858;51.056;3.712;2023-07-20T09:47:04;17.58;;;16.48;;
23370;SDS011;11858;51.056;3.712;2023-07-20T09:49:30;16.98;;;15.98;;
23370;SDS011;11858;51.056;3.712;2023-07-20T09:51:59;17.05;;;16.05;;
23370;SDS011;11858;51.056;3.712;2023-07-20T09:54:27;17.70;;;16.60;;
23370;SDS011;11858;51.056;3.712;2023-07-20T09:56:54;17.10;;;16.10;;
23370;SDS011;11858;51.056;3.712;2023-07-20T09:59:20;18.25;;;17.05;;
23370;SDS011;11858;51.056;3.712;2023-07-20T10:01:46;19.13;;;17.75;;
23370;SDS011;11858;51.056;3.712;2023-07-20T10:04:14;18.45;;;17.25;;
23370;SDS011;11858;51.056;3.712;2023-07-20T10:06:43;18.25;;;17.15;;
23370;SDS011;11858;51.056;3.712;2023-07-20T10:09:13;18.83;;;17.63;;
23370;SDS011;11858;51.056;3.712;2023-07-20T10:11:41;20.13;;;18.02;;
23370;SDS011;11858;51.056;3.712;2023-07-20T10:14:16;18.33;;;17.23;;
23370;SDS011;11858;51.056;3.712;2023-07-20T10:16:50;17.65;;;16.65;;
23370;SDS011;11858;51.056;3.712;2023-07-20T10:22:12;17.80;;;16.70;;
23370;SDS011;11858;51.056;3.712;2023-07-20T10:24:41;17.45;;;16.35;;
23370;SDS011;11858;51.056;3.712;2023-07-20T10:27:10;17.30;;;16.20;;
23370;SDS011;11858;51.056;3.712;2023-07-20T10:29:36;17.20;;;16.10;;
23370;SDS011;11858;51.056;3.712;2023-07-20T10:32:02;18.00;;;16.90;;
23370;SDS011;11858;51.056;3.712;2023-07-20T10:34:28;17.08;;;16.08;;
23370;SDS011;11858;51.056;3.712;2023-07-20T10:36:54;17.33;;;16.23;;
23370;SDS011;11858;51.056;3.712;2023-07-20T10:39:37;16.80;;;15.80;;
23370;SDS011;11858;51.056;3.712;2023-07-20T10:42:09;16.92;;;15.93;;
23370;SDS011;11858;51.056;3.712;2023-07-20T10:44:38;17.38;;;16.27;;
23370;SDS011;11858;51.056;3.712;2023-07-20T10:47:08;17.73;;;16.40;;
23370;SDS011;11858;51.056;3.712;2023-07-20T10:49:35;17.52;;;16.42;;
23370;SDS011;11858;51.056;3.712;2023-07-20T10:52:36;17.00;;;16.00;;
23370;SDS011;11858;51.056;3.712;2023-07-20T10:55:15;17.60;;;16.50;;
23370;SDS011;11858;51.056;3.712;2023-07-20T10:57:42;17.23;;;16.13;;
23370;SDS011;11858;51.056;3.712;2023-07-20T11:00:11;17.23;;;16.13;;
23370;SDS011;11858;51.056;3.712;2023-07-20T11:02:42;17.00;;;16.00;;
23370;SDS011;11858;51.056;3.712;2023-07-20T11:08:10;17.45;;;16.35;;
23370;SDS011;11858;51.056;3.712;2023-07-20T11:10:37;17.70;;;16.60;;
23370;SDS011;11858;51.056;3.712;2023-07-20T11:13:16;17.27;;;16.20;;
23370;SDS011;11858;51.056;3.712;2023-07-20T11:15:47;17.63;;;16.52;;
23370;SDS011;11858;51.056;3.712;2023-07-20T11:18:22;17.42;;;16.33;;
23370;SDS011;11858;51.056;3.712;2023-07-20T11:20:50;16.80;;;15.80;;
23370;SDS011;11858;51.056;3.712;2023-07-20T11:23:19;17.05;;;16.05;;
23370;SDS011;11858;51.056;3.712;2023-07-20T11:25:45;17.95;;;16.85;;
23370;SDS011;11858;51.056;3.712;2023-07-20T11:28:11;17.15;;;16.15;;
23370;SDS011;11858;51.056;3.712;2023-07-20T11:30:38;18.23;;;17.13;;
23370;SDS011;11858;51.056;3.712;2023-07-20T11:33:04;18.08;;;16.98;;
23370;SDS011;11858;51.056;3.712;2023-07-20T11:35:31;17.08;;;16.08;;
23370;SDS011;11858;51.056;3.712;2023-07-20T11:38:01;17.13;;;16.13;;
23370;SDS011;11858;51.056;3.712;2023-07-20T11:40:27;17.45;;;16.35;;
23370;SDS011;11858;51.056;3.712;2023-07-20T11:42:53;17.60;;;16.50;;
23370;SDS011;11858;51.056;3.712;2023-07-20T11:45:19;17.48;;;16.38;;
23370;SDS011;11858;51.056;3.712;2023-07-20T11:47:45;17.45;;;16.40;;
23370;SDS011;11858;51.056;3.712;2023-07-20T11:50:10;17.17;;;16.17;;
23370;SDS011;11858;51.056;3.712;2023-07-20T11:52:38;17.58;;;16.48;;
23370;SDS011;11858;51.056;3.712;2023-07-20T11:55:05;17.25;;;16.25;;
23370;SDS011;11858;51.056;3.712;2023-07-20T11:57:32;16.80;;;15.80;;
23370;SDS011;11858;51.056;3.712;2023-07-20T12:00:00;17.90;;;16.30;;
23370;SDS011;11858;51.056;3.712;2023-07-20T12:02:29;16.83;;;15.82;;
23370;SDS011;11858;51.056;3.712;2023-07-20T12:04:55;17.38;;;16.27;;
23370;SDS011;11858;51.056;3.712;2023-07-20T12:07:21;17.23;;;16.13;;
23370;SDS011;11858;51.056;3.712;2023-07-20T12:10:06;17.13;;;16.02;;
23370;SDS011;11858;51.056;3.712;2023-07-20T12:12:33;18.00;;;16.80;;
23370;SDS011;11858;51.056;3.712;2023-07-20T12:17:48;18.67;;;17.38;;
23370;SDS011;11858;51.056;3.712;2023-07-20T12:20:32;18.60;;;17.30;;
23370;SDS011;11858;51.056;3.712;2023-07-20T12:23:00;18.45;;;17.25;;
23370;SDS011;11858;51.056;3.712;2023-07-20T12:25:37;18.33;;;17.13;;
23370;SDS011;11858;51.056;3.712;2023-07-20T12:28:13;19.38;;;18.08;;
23370;SDS011;11858;51.056;3.712;2023-07-20T12:30:40;18.58;;;17.38;;
23370;SDS011;11858;51.056;3.712;2023-07-20T12:33:07;18.17;;;17.08;;
23370;SDS011;11858;51.056;3.712;2023-07-20T12:35:33;18.67;;;17.38;;
23370;SDS011;11858;51.056;3.712;2023-07-20T12:37:59;18.65;;;17.45;;
23370;SDS011;11858;51.056;3.712;2023-07-20T12:40:25;19.27;;;18.00;;
23370;SDS011;11858;51.056;3.712;2023-07-20T12:42:51;18.55;;;17.38;;
23370;SDS011;11858;51.056;3.712;2023-07-20T12:45:17;18.10;;;17.00;;
23370;SDS011;11858;51.056;3.712;2023-07-20T12:47:43;18.33;;;17.13;;
23370;SDS011;11858;51.056;3.712;2023-07-20T12:50:09;19.55;;;18.23;;
23370;SDS011;11858;51.056;3.712;2023-07-20T12:52:36;18.67;;;17.48;;
23370;SDS011;11858;51.056;3.712;2023-07-20T12:55:03;19.02;;;17.83;;
23370;SDS011;11858;51.056;3.712;2023-07-20T12:57:29;18.50;;;17.40;;
23370;SDS011;11858;51.056;3.712;2023-07-20T12:59:55;18.08;;;16.98;;
23370;SDS011;11858;51.056;3.712;2023-07-20T13:02:21;18.88;;;17.60;;
23370;SDS011;11858;51.056;3.712;2023-07-20T13:04:46;18.58;;;17.38;;
23370;SDS011;11858;51.056;3.712;2023-07-20T13:07:12;17.70;;;16.60;;
23370;SDS011;11858;51.056;3.712;2023-07-20T13:09:38;17.60;;;16.50;;
23370;SDS011;11858;51.056;3.712;2023-07-20T13:12:04;17.98;;;16.88;;
23370;SDS011;11858;51.056;3.712;2023-07-20T13:14:29;18.42;;;17.23;;
23370;SDS011;11858;51.056;3.712;2023-07-20T13:16:55;17.67;;;16.58;;
23370;SDS011;11858;51.056;3.712;2023-07-20T13:19:21;18.13;;;17.02;;
23370;SDS011;11858;51.056;3.712;2023-07-20T13:21:47;17.58;;;16.48;;
23370;SDS011;11858;51.056;3.712;2023-07-20T13:24:13;17.77;;;16.67;;
23370;SDS011;11858;51.056;3.712;2023-07-20T13:26:39;18.20;;;17.10;;
23370;SDS011;11858;51.056;3.712;2023-07-20T13:29:04;17.90;;;16.80;;
23370;SDS011;11858;51.056;3.712;2023-07-20T13:31:30;18.17;;;17.08;;
23370;SDS011;11858;51.056;3.712;2023-07-20T13:33:56;18.10;;;17.00;;
23370;SDS011;11858;51.056;3.712;2023-07-20T13:36:23;18.65;;;17.45;;
23370;SDS011;11858;51.056;3.712;2023-07-20T13:38:49;18.05;;;16.95;;
23370;SDS011;11858;51.056;3.712;2023-07-20T13:41:14;17.83;;;16.73;;
23370;SDS011;11858;51.056;3.712;2023-07-20T13:43:41;18.05;;;16.95;;
23370;SDS011;11858;51.056;3.712;2023-07-20T13:46:07;18.30;;;17.10;;
23370;SDS011;11858;51.056;3.712;2023-07-20T13:48:33;17.92;;;16.83;;
23370;SDS011;11858;51.056;3.712;2023-07-20T13:50:58;17.75;;;16.65;;
23370;SDS011;11858;51.056;3.712;2023-07-20T13:53:24;17.95;;;16.85;;
23370;SDS011;11858;51.056;3.712;2023-07-20T13:55:50;18.10;;;17.00;;
23370;SDS011;11858;51.056;3.712;2023-07-20T13:58:17;18.17;;;17.08;;
23370;SDS011;11858;51.056;3.712;2023-07-20T14:00:42;18.00;;;16.90;;
23370;SDS011;11858;51.056;3.712;2023-07-20T14:03:08;19.13;;;17.92;;
23370;SDS011;11858;51.056;3.712;2023-07-20T14:05:34;19.80;;;18.60;;
23370;SDS011;11858;51.056;3.712;2023-07-20T14:08:00;20.70;;;19.23;;
23370;SDS011;11858;51.056;3.712;2023-07-20T14:10:26;20.25;;;19.05;;
23370;SDS011;11858;51.056;3.712;2023-07-20T14:12:51;20.58;;;19.30;;
23370;SDS011;11858;51.056;3.712;2023-07-20T14:15:17;20.10;;;18.90;;
23370;SDS011;11858;51.056;3.712;2023-07-20T14:17:44;20.45;;;19.15;;
23370;SDS011;11858;51.056;3.712;2023-07-20T14:20:09;19.38;;;18.17;;
23370;SDS011;11858;51.056;3.712;2023-07-20T14:22:36;18.10;;;17.00;;
23370;SDS011;11858;51.056;3.712;2023-07-20T14:25:02;17.70;;;16.70;;
23370;SDS011;11858;51.056;3.712;2023-07-20T14:27:27;15.50;;;14.60;;
23370;SDS011;11858;51.056;3.712;2023-07-20T14:29:53;13.70;;;12.90;;
23370;SDS011;11858;51.056;3.712;2023-07-20T14:32:20;12.40;;;11.70;;
23370;SDS011;11858;51.056;3.712;2023-07-20T14:34:45;13.40;;;12.70;;
23370;SDS011;11858;51.056;3.712;2023-07-20T14:37:11;13.30;;;12.60;;
23370;SDS011;11858;51.056;3.712;2023-07-20T14:39:38;10.35;;;9.85;;
23370;SDS011;11858;51.056;3.712;2023-07-20T14:42:03;10.52;;;9.95;;
23370;SDS011;11858;51.056;3.712;2023-07-20T14:44:30;8.90;;;8.40;;
23370;SDS011;11858;51.056;3.712;2023-07-20T14:46:55;6.40;;;6.10;;
23370;SDS011;11858;51.056;3.712;2023-07-20T14:49:21;7.22;;;6.82;;
23370;SDS011;11858;51.056;3.712;2023-07-20T14:51:47;8.15;;;7.75;;